createdAt,value
2022-12-17T00:01:48.932Z,72.80
2022-12-17T00:07:20.665Z,72.82
2022-12-17T00:12:52.123Z,72.77
2022-12-17T00:18:24.238Z,72.79
2022-12-17T00:23:57.165Z,72.82
2022-12-17T00:29:29.033Z,72.85
2022-12-17T00:35:00.966Z,72.87
2022-12-17T00:40:32.830Z,72.87
2022-12-17T00:46:04.575Z,72.88
2022-12-17T00:51:36.256Z,72.88
2022-12-17T00:57:08.167Z,72.89
2022-12-17T01:02:40.029Z,72.91
2022-12-17T01:08:11.999Z,72.94
2022-12-17T01:13:43.541Z,72.94
2022-12-17T01:19:15.349Z,72.90
2022-12-17T01:24:47.249Z,72.96
2022-12-17T01:35:48.697Z,72.96
2022-12-17T01:41:20.521Z,72.96
2022-12-17T01:46:52.476Z,72.93
2022-12-17T01:52:24.390Z,72.94
2022-12-17T01:57:56.118Z,72.88
2022-12-17T02:03:27.666Z,72.94
2022-12-17T02:08:59.185Z,72.86
2022-12-17T02:14:31.371Z,72.82
2022-12-17T02:20:03.079Z,72.85
2022-12-17T02:25:34.979Z,72.86
2022-12-17T02:31:06.789Z,72.85
2022-12-17T02:36:38.434Z,72.90
2022-12-17T02:42:09.923Z,72.91
2022-12-17T02:47:41.497Z,72.90
2022-12-17T02:53:13.527Z,72.86
2022-12-17T02:58:45.126Z,72.80
2022-12-17T03:04:16.726Z,72.78
2022-12-17T03:09:48.611Z,72.73
2022-12-17T03:15:20.778Z,72.75
2022-12-17T03:20:52.897Z,72.75
2022-12-17T03:26:24.499Z,72.76
2022-12-17T03:31:56.411Z,72.71
2022-12-17T03:37:28.188Z,72.69
2022-12-17T03:42:59.888Z,72.64
2022-12-17T03:48:31.902Z,72.65
2022-12-17T03:54:03.781Z,72.43
2022-12-17T03:59:35.571Z,72.37
2022-12-17T04:05:07.245Z,72.09
2022-12-17T04:10:38.918Z,72.11
2022-12-17T04:16:10.810Z,72.08
2022-12-17T04:21:42.789Z,71.93
2022-12-17T04:27:14.499Z,71.88
2022-12-17T04:32:46.412Z,71.90
2022-12-17T04:38:20.046Z,71.89
2022-12-17T04:43:51.776Z,71.87
2022-12-17T04:49:23.588Z,72.05
2022-12-17T04:54:55.187Z,72.04
2022-12-17T05:00:27.037Z,72.10
2022-12-17T05:05:58.619Z,72.15
2022-12-17T05:11:30.500Z,72.13
2022-12-17T05:17:02.634Z,72.16
2022-12-17T05:22:34.535Z,72.18
2022-12-17T05:28:06.200Z,72.10
2022-12-17T05:33:38.486Z,72.09
2022-12-17T05:39:09.771Z,72.09
2022-12-17T05:44:41.705Z,72.15
2022-12-17T05:50:13.340Z,72.06
2022-12-17T05:55:45.162Z,71.90
2022-12-17T06:01:16.969Z,71.93
2022-12-17T06:06:48.850Z,71.79
2022-12-17T06:12:20.665Z,71.77
2022-12-17T06:17:52.527Z,71.86
2022-12-17T06:23:24.584Z,72.00
2022-12-17T06:28:56.372Z,72.08
2022-12-17T06:34:28.351Z,72.10
2022-12-17T06:39:59.843Z,72.17
2022-12-17T06:45:31.916Z,72.18
2022-12-17T06:51:03.679Z,72.22
2022-12-17T06:56:35.657Z,72.20
2022-12-17T07:02:07.969Z,72.23
2022-12-17T07:07:39.521Z,72.26
2022-12-17T07:13:11.311Z,72.26
2022-12-17T07:18:43.110Z,72.38
2022-12-17T07:24:14.896Z,72.35
2022-12-17T07:29:46.621Z,72.33
2022-12-17T07:35:18.265Z,72.32
2022-12-17T07:40:50.336Z,72.32
2022-12-17T07:46:22.162Z,72.33
2022-12-17T07:51:53.946Z,72.36
2022-12-17T07:57:25.691Z,72.34
2022-12-17T08:02:57.808Z,72.32
2022-12-17T08:13:59.159Z,72.25
2022-12-17T08:19:31.426Z,72.27
2022-12-17T08:25:03.274Z,72.21
2022-12-17T08:30:35.156Z,72.24
2022-12-17T08:36:07.024Z,72.21
2022-12-17T08:41:38.599Z,72.19
2022-12-17T08:47:10.650Z,72.10
2022-12-17T08:52:42.241Z,71.92
2022-12-17T08:58:18.086Z,71.83
2022-12-17T09:00:51.407Z,71.78
2022-12-17T09:06:27.644Z,71.39
2022-12-17T09:12:04.446Z,71.24
2022-12-17T09:17:36.297Z,71.12
2022-12-17T09:23:08.064Z,70.74
2022-12-17T09:28:42.298Z,70.55
